createdAt,value
2022-12-08T00:00:24.866Z,4.35
2022-12-08T00:01:25.240Z,4.35
2022-12-08T00:02:23.430Z,4.34
2022-12-08T00:03:27.066Z,4.34
2022-12-08T00:04:22.799Z,4.32
2022-12-08T00:05:22.740Z,4.34
2022-12-08T00:06:23.068Z,4.32
2022-12-08T00:07:22.746Z,4.34
2022-12-08T00:08:22.843Z,4.35
2022-12-08T00:09:22.735Z,4.32
2022-12-08T00:10:48.056Z,4.34
2022-12-08T00:11:23.736Z,4.35
2022-12-08T00:12:22.696Z,4.35
2022-12-08T00:13:22.695Z,4.35
2022-12-08T00:14:22.647Z,4.36
2022-12-08T00:15:22.645Z,4.36
2022-12-08T00:16:22.761Z,4.36
2022-12-08T00:17:22.683Z,4.36
2022-12-08T00:18:22.613Z,4.38
2022-12-08T00:19:30.268Z,4.38
2022-12-08T00:20:22.574Z,4.42
2022-12-08T00:21:22.561Z,4.42
2022-12-08T00:22:22.878Z,4.42
2022-12-08T00:23:22.598Z,4.42
2022-12-08T00:24:22.572Z,4.44
2022-12-08T00:25:23.513Z,4.43
2022-12-08T00:26:22.515Z,4.44
2022-12-08T00:27:22.493Z,4.44
2022-12-08T00:28:22.520Z,4.44
2022-12-08T00:29:22.523Z,4.44
2022-12-08T00:30:22.442Z,4.46
2022-12-08T00:31:22.569Z,4.46
2022-12-08T00:32:22.574Z,4.47
2022-12-08T00:33:22.422Z,4.47
2022-12-08T00:34:22.438Z,4.49
2022-12-08T00:35:22.388Z,4.49
2022-12-08T00:36:22.423Z,4.49
2022-12-08T00:37:22.367Z,4.50
2022-12-08T00:38:22.406Z,4.50
2022-12-08T00:39:22.393Z,4.47
2022-12-08T00:40:22.338Z,4.47
2022-12-08T00:41:22.360Z,4.47
2022-12-08T00:42:22.281Z,4.47
2022-12-08T00:43:22.298Z,4.49
2022-12-08T00:44:22.283Z,4.47
2022-12-08T00:45:22.270Z,4.47
2022-12-08T00:46:22.430Z,4.47
2022-12-08T00:47:24.778Z,4.47
2022-12-08T00:48:22.233Z,4.47
2022-12-08T00:49:22.188Z,4.49
2022-12-08T00:50:22.205Z,4.50
2022-12-08T00:51:22.194Z,4.49
2022-12-08T00:52:22.224Z,4.49
2022-12-08T00:53:22.169Z,4.49
2022-12-08T00:54:22.162Z,4.47
2022-12-08T00:55:23.097Z,4.49
2022-12-08T00:56:22.152Z,4.47
2022-12-08T00:57:22.102Z,4.47
2022-12-08T00:58:22.164Z,4.49
2022-12-08T00:59:22.132Z,4.50
2022-12-08T01:00:22.072Z,4.49
2022-12-08T01:01:22.130Z,4.49
2022-12-08T01:02:22.072Z,4.47
2022-12-08T01:03:22.123Z,4.47
2022-12-08T01:04:22.033Z,4.50
2022-12-08T01:05:21.993Z,4.50
2022-12-08T01:06:21.985Z,4.50
2022-12-08T01:07:21.955Z,4.49
2022-12-08T01:08:22.081Z,4.47
2022-12-08T01:09:21.958Z,4.47
2022-12-08T01:10:21.955Z,4.47
2022-12-08T01:11:21.913Z,4.50
2022-12-08T01:12:21.972Z,4.50
2022-12-08T01:13:21.904Z,4.50
2022-12-08T01:14:21.882Z,4.51
2022-12-08T01:15:21.847Z,4.51
2022-12-08T01:16:21.921Z,4.54
2022-12-08T01:17:21.904Z,4.56
2022-12-08T01:18:22.849Z,4.56
2022-12-08T01:19:21.830Z,4.56
2022-12-08T01:20:21.828Z,4.56
2022-12-08T01:21:21.837Z,4.57
2022-12-08T01:22:21.781Z,4.57
2022-12-08T01:23:21.757Z,4.56
2022-12-08T01:24:21.794Z,4.56
2022-12-08T01:25:21.768Z,4.54
2022-12-08T01:26:21.730Z,4.54
2022-12-08T01:27:21.726Z,4.54
2022-12-08T01:28:21.727Z,4.56
2022-12-08T01:29:21.660Z,4.56
2022-12-08T01:30:21.703Z,4.54
2022-12-08T01:31:21.751Z,4.54
2022-12-08T01:32:21.652Z,4.53
2022-12-08T01:33:21.646Z,4.54
2022-12-08T01:34:21.628Z,4.54
2022-12-08T01:35:21.577Z,4.54
2022-12-08T01:36:21.589Z,4.56
2022-12-08T01:37:21.566Z,4.57
2022-12-08T01:38:21.575Z,4.59
2022-12-08T01:39:21.592Z,4.59
2022-12-08T01:40:21.605Z,4.59
2022-12-08T01:41:21.544Z,4.57
2022-12-08T01:42:21.582Z,4.59
2022-12-08T01:43:21.552Z,4.59
2022-12-08T01:44:21.477Z,4.56
2022-12-08T01:45:21.484Z,4.54
2022-12-08T01:46:21.542Z,4.53
2022-12-08T01:47:21.466Z,4.53
2022-12-08T01:48:21.505Z,4.53
2022-12-08T01:49:21.485Z,4.53
2022-12-08T01:50:21.444Z,4.53
2022-12-08T01:51:21.430Z,4.53
2022-12-08T01:52:21.428Z,4.53
2022-12-08T01:53:21.409Z,4.53
2022-12-08T01:54:21.365Z,4.54
2022-12-08T01:55:21.355Z,4.56
2022-12-08T01:56:21.351Z,4.54
2022-12-08T01:57:21.311Z,4.54
2022-12-08T01:58:21.382Z,4.53
2022-12-08T01:59:21.302Z,4.53
2022-12-08T02:00:21.269Z,4.53
2022-12-08T02:01:21.326Z,4.53
2022-12-08T02:02:21.346Z,4.53
2022-12-08T02:03:21.291Z,4.54
2022-12-08T02:04:21.246Z,4.54
2022-12-08T02:05:21.250Z,4.53
2022-12-08T02:06:21.213Z,4.54
2022-12-08T02:07:21.231Z,4.54
2022-12-08T02:08:21.254Z,4.56
2022-12-08T02:09:21.212Z,4.57
2022-12-08T02:10:21.143Z,4.56
2022-12-08T02:11:21.167Z,4.56
2022-12-08T02:12:21.155Z,4.56
2022-12-08T02:13:21.139Z,4.54
2022-12-08T02:14:21.127Z,4.54
2022-12-08T02:15:21.100Z,4.56
2022-12-08T02:16:21.113Z,4.57
2022-12-08T02:17:21.099Z,4.57
2022-12-08T02:18:21.086Z,4.59
2022-12-08T02:19:36.323Z,4.59
2022-12-08T02:20:22.029Z,4.57
2022-12-08T02:21:21.031Z,4.56
2022-12-08T02:22:21.015Z,4.56
2022-12-08T02:23:21.037Z,4.56
2022-12-08T02:24:20.939Z,4.57
2022-12-08T02:25:20.973Z,4.59
2022-12-08T02:26:21.971Z,4.59
2022-12-08T02:27:21.015Z,4.59
2022-12-08T02:28:20.935Z,4.57
2022-12-08T02:29:20.944Z,4.56
2022-12-08T02:30:20.894Z,4.59
2022-12-08T02:31:20.903Z,4.57
2022-12-08T02:32:20.868Z,4.57
2022-12-08T02:33:20.871Z,4.57
2022-12-08T02:34:20.854Z,4.61
2022-12-08T02:35:20.872Z,4.57
2022-12-08T02:36:20.843Z,4.57
2022-12-08T02:37:20.813Z,4.56
2022-12-08T02:38:20.784Z,4.56
2022-12-08T02:39:20.846Z,4.57
2022-12-08T02:40:21.756Z,4.59
2022-12-08T02:41:20.771Z,4.59
2022-12-08T02:42:20.785Z,4.57
2022-12-08T02:43:20.783Z,4.57
2022-12-08T02:44:20.720Z,4.57
2022-12-08T02:45:20.752Z,4.57
2022-12-08T02:46:20.837Z,4.59
2022-12-08T02:47:20.749Z,4.59
2022-12-08T02:48:20.703Z,4.59
2022-12-08T02:49:21.643Z,4.59
2022-12-08T02:50:20.602Z,4.61
2022-12-08T02:51:20.629Z,4.61
2022-12-08T02:52:20.632Z,4.61
2022-12-08T02:53:20.618Z,4.61
2022-12-08T02:54:20.624Z,4.59
2022-12-08T02:55:20.551Z,4.57
2022-12-08T02:56:20.570Z,4.59
2022-12-08T02:57:20.557Z,4.57
2022-12-08T02:58:20.522Z,4.56
2022-12-08T02:59:20.527Z,4.54
2022-12-08T03:00:20.540Z,4.56
2022-12-08T03:01:20.583Z,4.56
2022-12-08T03:02:20.575Z,4.57
2022-12-08T03:03:20.502Z,4.57
2022-12-08T03:04:20.440Z,4.56
2022-12-08T03:05:20.496Z,4.54
2022-12-08T03:06:20.421Z,4.56
2022-12-08T03:07:20.434Z,4.56
2022-12-08T03:08:20.421Z,4.56
2022-12-08T03:09:20.437Z,4.57
2022-12-08T03:10:20.358Z,4.57
2022-12-08T03:11:20.471Z,4.59
2022-12-08T03:12:20.337Z,4.56
2022-12-08T03:13:20.412Z,4.57
2022-12-08T03:14:20.334Z,4.57
2022-12-08T03:15:20.359Z,4.57
2022-12-08T03:16:20.434Z,4.59
2022-12-08T03:17:20.348Z,4.59
2022-12-08T03:18:20.263Z,4.61
2022-12-08T03:19:20.286Z,4.57
2022-12-08T03:20:20.244Z,4.56
2022-12-08T03:21:20.226Z,4.54
2022-12-08T03:22:20.215Z,4.56
2022-12-08T03:23:20.195Z,4.53
2022-12-08T03:24:20.166Z,4.54
2022-12-08T03:25:20.174Z,4.53
2022-12-08T03:26:20.152Z,4.56
2022-12-08T03:27:20.182Z,4.54
2022-12-08T03:28:20.135Z,4.57
2022-12-08T03:29:20.132Z,4.54
2022-12-08T03:30:20.140Z,4.56
2022-12-08T03:31:20.290Z,4.56
2022-12-08T03:32:20.091Z,4.56
2022-12-08T03:33:20.080Z,4.57
2022-12-08T03:34:20.080Z,4.56
2022-12-08T03:35:20.110Z,4.54
2022-12-08T03:36:20.061Z,4.54
2022-12-08T03:37:20.080Z,4.54
2022-12-08T03:38:20.029Z,4.54
2022-12-08T03:39:20.039Z,4.51
2022-12-08T03:40:19.989Z,4.54
2022-12-08T03:41:20.002Z,4.56
2022-12-08T03:42:19.941Z,4.54
2022-12-08T03:43:19.972Z,4.56
2022-12-08T03:44:19.959Z,4.54
2022-12-08T03:45:19.920Z,4.57
2022-12-08T03:46:54.184Z,4.59
2022-12-08T03:47:54.146Z,4.57
2022-12-08T03:48:54.108Z,4.59
2022-12-08T03:49:54.149Z,4.57
2022-12-08T03:50:54.136Z,4.57
2022-12-08T03:51:54.133Z,4.59
2022-12-08T03:52:54.115Z,4.57
2022-12-08T03:53:54.068Z,4.61
2022-12-08T03:54:54.043Z,4.59
2022-12-08T03:55:54.195Z,4.59
2022-12-08T03:56:54.059Z,4.59
2022-12-08T03:57:54.009Z,4.59
2022-12-08T03:58:53.967Z,4.59
2022-12-08T03:59:54.030Z,4.59
2022-12-08T04:00:54.016Z,4.56
2022-12-08T04:01:54.050Z,4.59
2022-12-08T04:02:54.031Z,4.54
2022-12-08T04:03:53.951Z,4.56
2022-12-08T04:04:53.941Z,4.57
2022-12-08T04:05:53.948Z,4.56
2022-12-08T04:06:53.933Z,4.57
2022-12-08T04:07:53.987Z,4.57
2022-12-08T04:08:53.836Z,4.59
2022-12-08T04:09:53.907Z,4.59
2022-12-08T04:10:53.863Z,4.57
2022-12-08T04:11:53.843Z,4.59
2022-12-08T04:12:53.832Z,4.57
2022-12-08T04:13:53.872Z,4.59
2022-12-08T04:14:53.802Z,4.57
2022-12-08T04:15:53.928Z,4.59
2022-12-08T04:16:53.830Z,4.61
2022-12-08T04:17:53.800Z,4.62
2022-12-08T04:18:53.774Z,4.62
2022-12-08T04:19:54.716Z,4.62
2022-12-08T04:20:53.694Z,4.62
2022-12-08T04:21:53.703Z,4.64
2022-12-08T04:22:53.679Z,4.64
2022-12-08T04:23:57.639Z,4.64
2022-12-08T04:24:54.651Z,4.62
2022-12-08T04:25:53.717Z,4.61
2022-12-08T04:26:53.628Z,4.61
2022-12-08T04:27:53.613Z,4.59
2022-12-08T04:28:53.608Z,4.61
2022-12-08T04:29:53.581Z,4.59
2022-12-08T04:30:53.596Z,4.61
2022-12-08T04:31:53.599Z,4.61
2022-12-08T04:32:53.577Z,4.59
2022-12-08T04:33:53.579Z,4.61
2022-12-08T04:34:53.529Z,4.59
2022-12-08T04:35:53.636Z,4.61
2022-12-08T04:36:53.534Z,4.57
2022-12-08T04:37:53.505Z,4.56
2022-12-08T04:38:54.477Z,4.54
2022-12-08T04:39:53.514Z,4.54
2022-12-08T04:40:53.509Z,4.53
2022-12-08T04:41:53.493Z,4.50
2022-12-08T04:42:53.436Z,4.50
2022-12-08T04:43:53.445Z,4.50
2022-12-08T04:44:53.379Z,4.51
2022-12-08T04:45:53.486Z,4.50
2022-12-08T04:46:53.436Z,4.49
2022-12-08T04:47:53.361Z,4.49
2022-12-08T04:48:54.357Z,4.46
2022-12-08T04:49:53.347Z,4.47
2022-12-08T04:50:53.341Z,4.46
2022-12-08T04:51:53.367Z,4.49
2022-12-08T04:52:53.266Z,4.49
2022-12-08T04:53:53.379Z,4.49
2022-12-08T04:54:53.240Z,4.49
2022-12-08T04:55:53.295Z,4.47
2022-12-08T04:56:53.252Z,4.47
2022-12-08T04:57:53.261Z,4.49
2022-12-08T04:58:53.229Z,4.47
2022-12-08T04:59:53.231Z,4.47
2022-12-08T05:00:53.353Z,4.49
2022-12-08T05:01:53.456Z,4.47
2022-12-08T05:02:53.320Z,4.47
2022-12-08T05:03:53.241Z,4.46
2022-12-08T05:04:53.171Z,4.46
2022-12-08T05:05:53.149Z,4.47
2022-12-08T05:06:53.124Z,4.46
2022-12-08T05:07:53.182Z,4.49
2022-12-08T05:08:53.120Z,4.49
2022-12-08T05:09:53.128Z,4.49
2022-12-08T05:10:53.118Z,4.50
2022-12-08T05:11:53.050Z,4.51
2022-12-08T05:12:53.050Z,4.50
2022-12-08T05:13:53.009Z,4.51
2022-12-08T05:14:53.050Z,4.51
2022-12-08T05:15:53.148Z,4.51
2022-12-08T05:16:53.048Z,4.51
2022-12-08T05:17:53.010Z,4.49
2022-12-08T05:18:52.938Z,4.50
2022-12-08T05:19:52.968Z,4.47
2022-12-08T05:21:00.542Z,4.46
2022-12-08T05:21:52.935Z,4.43
2022-12-08T05:22:52.917Z,4.46
2022-12-08T05:23:53.004Z,4.46
2022-12-08T05:24:52.865Z,4.44
2022-12-08T05:25:52.931Z,4.44
2022-12-08T05:26:52.859Z,4.49
2022-12-08T05:28:01.671Z,4.47
2022-12-08T05:28:53.860Z,4.47
2022-12-08T05:29:52.872Z,4.47
2022-12-08T05:30:52.823Z,4.47
2022-12-08T05:31:52.848Z,4.47
2022-12-08T05:32:52.792Z,4.49
2022-12-08T05:33:52.742Z,4.47
2022-12-08T05:34:52.742Z,4.49
2022-12-08T05:35:52.732Z,4.49
2022-12-08T05:36:52.732Z,4.49
2022-12-08T05:37:52.734Z,4.50
2022-12-08T05:38:52.703Z,4.50
2022-12-08T05:39:52.713Z,4.49
2022-12-08T05:40:52.703Z,4.49
2022-12-08T05:41:52.685Z,4.50
2022-12-08T05:42:52.701Z,4.51
2022-12-08T05:43:52.666Z,4.50
2022-12-08T05:44:52.615Z,4.50
2022-12-08T05:45:52.758Z,4.49
2022-12-08T05:46:52.637Z,4.47
2022-12-08T05:47:52.585Z,4.49
2022-12-08T05:48:52.569Z,4.49
2022-12-08T05:49:52.584Z,4.50
2022-12-08T05:50:52.673Z,4.49
2022-12-08T05:51:52.517Z,4.50
2022-12-08T05:52:52.553Z,4.49
2022-12-08T05:53:52.526Z,4.50
2022-12-08T05:54:52.503Z,4.47
2022-12-08T05:55:52.570Z,4.50
2022-12-08T05:56:52.471Z,4.50
2022-12-08T05:57:52.464Z,4.51
2022-12-08T05:58:52.418Z,4.50
2022-12-08T05:59:52.425Z,4.47
2022-12-08T06:00:52.512Z,4.46
2022-12-08T06:01:52.451Z,4.47
2022-12-08T06:02:52.563Z,4.49
2022-12-08T06:03:52.387Z,4.49
2022-12-08T06:04:52.380Z,4.50
2022-12-08T06:05:52.422Z,4.46
2022-12-08T06:06:52.324Z,4.47
2022-12-08T06:07:52.384Z,4.47
2022-12-08T06:08:52.332Z,4.47
2022-12-08T06:09:52.322Z,4.47
2022-12-08T06:10:52.326Z,4.47
2022-12-08T06:11:52.289Z,4.44
2022-12-08T06:12:52.327Z,4.46
2022-12-08T06:13:52.245Z,4.43
2022-12-08T06:14:52.238Z,4.44
2022-12-08T06:15:52.250Z,4.43
2022-12-08T06:16:52.293Z,4.39
2022-12-08T06:17:52.232Z,4.43
2022-12-08T06:18:52.188Z,4.42
2022-12-08T06:19:52.178Z,4.42
2022-12-08T06:20:52.162Z,4.42
2022-12-08T06:21:52.178Z,4.42
2022-12-08T06:22:52.194Z,4.42
2022-12-08T06:23:52.116Z,4.39
2022-12-08T06:24:52.126Z,4.38
2022-12-08T06:25:52.096Z,4.38
2022-12-08T06:26:52.049Z,4.39
2022-12-08T06:27:52.089Z,4.39
2022-12-08T06:28:52.059Z,4.39
2022-12-08T06:29:52.030Z,4.42
2022-12-08T06:30:52.038Z,4.42
2022-12-08T06:31:52.111Z,4.39
2022-12-08T06:32:51.998Z,4.38
2022-12-08T06:33:51.976Z,4.36
2022-12-08T06:34:51.974Z,4.36
2022-12-08T06:35:51.986Z,4.36
2022-12-08T06:36:51.943Z,4.36
2022-12-08T06:37:52.171Z,4.36
2022-12-08T06:38:51.896Z,4.35
2022-12-08T06:39:51.964Z,4.32
2022-12-08T06:40:51.981Z,4.32
2022-12-08T06:41:51.916Z,4.34
2022-12-08T06:42:51.892Z,4.31
2022-12-08T06:43:51.854Z,4.29
2022-12-08T06:44:51.813Z,4.29
2022-12-08T06:45:51.878Z,4.31
2022-12-08T06:46:51.817Z,4.29
2022-12-08T06:47:51.849Z,4.29
2022-12-08T06:48:51.784Z,4.29
2022-12-08T06:49:51.835Z,4.29
2022-12-08T06:50:51.788Z,4.26
2022-12-08T06:51:51.811Z,4.26
2022-12-08T06:53:01.031Z,4.28
2022-12-08T06:53:52.764Z,4.26
2022-12-08T06:54:51.750Z,4.24
2022-12-08T06:55:59.225Z,4.21
2022-12-08T06:56:52.702Z,4.25
2022-12-08T06:57:54.058Z,4.25
2022-12-08T06:58:52.922Z,4.25
2022-12-08T06:59:51.852Z,4.21
2022-12-08T07:00:52.237Z,4.20
2022-12-08T07:01:51.749Z,4.21
2022-12-08T07:02:55.864Z,4.21
2022-12-08T07:03:53.172Z,4.21
2022-12-08T07:04:51.823Z,4.20
2022-12-08T07:05:51.616Z,4.20
2022-12-08T07:06:51.695Z,4.20
2022-12-08T07:07:51.628Z,4.21
2022-12-08T07:08:51.954Z,4.21
2022-12-08T07:09:51.647Z,4.21
2022-12-08T07:10:51.937Z,4.24
2022-12-08T07:11:51.685Z,4.21
2022-12-08T07:12:55.810Z,4.24
2022-12-08T07:13:51.520Z,4.21
2022-12-08T07:14:51.440Z,4.18
2022-12-08T07:18:28.691Z,4.16
2022-12-08T07:22:22.223Z,4.14
2022-12-08T07:30:11.190Z,4.16
2022-12-08T07:32:28.875Z,4.17
2022-12-08T07:36:21.902Z,4.20
2022-12-08T07:38:20.870Z,4.17
2022-12-08T07:42:12.257Z,4.14
2022-12-08T07:42:54.801Z,4.16
2022-12-08T07:46:14.026Z,4.13
2022-12-08T07:49:12.125Z,4.13
2022-12-08T07:51:15.912Z,4.13
2022-12-08T07:52:25.184Z,4.13
2022-12-08T07:54:36.747Z,4.14
2022-12-08T07:55:32.710Z,4.11
2022-12-08T07:56:32.462Z,4.11
2022-12-08T07:57:33.199Z,4.08
2022-12-08T07:58:32.823Z,4.07
2022-12-08T07:59:33.265Z,4.08
2022-12-08T08:00:33.904Z,4.08
2022-12-08T08:01:37.017Z,4.04
2022-12-08T08:02:33.142Z,4.02
2022-12-08T08:03:44.766Z,3.99
2022-12-08T08:04:35.415Z,3.96
2022-12-08T08:05:37.063Z,3.95
2022-12-08T08:06:37.317Z,3.95
2022-12-08T08:07:35.605Z,3.93
2022-12-08T08:08:33.030Z,3.93
2022-12-08T08:09:38.938Z,3.93
2022-12-08T08:10:33.889Z,3.93
2022-12-08T08:11:32.735Z,3.96
2022-12-08T08:12:33.131Z,3.93
2022-12-08T08:13:32.689Z,3.96
2022-12-08T08:14:32.211Z,3.93
2022-12-08T08:15:32.340Z,3.92
2022-12-08T08:16:38.604Z,3.92
2022-12-08T08:18:55.963Z,3.92
2022-12-08T08:20:03.930Z,3.90
2022-12-08T08:20:55.899Z,3.92
2022-12-08T08:21:55.900Z,3.93
2022-12-08T08:22:55.869Z,3.96
2022-12-08T08:23:56.784Z,3.99
2022-12-08T08:24:55.898Z,3.96
2022-12-08T08:25:55.850Z,3.98
2022-12-08T08:26:55.843Z,3.99
2022-12-08T08:27:55.839Z,3.96
2022-12-08T08:28:55.875Z,3.99
2022-12-08T08:29:56.028Z,3.98
2022-12-08T08:30:55.850Z,3.99
2022-12-08T08:31:55.793Z,4.00
2022-12-08T08:32:56.503Z,4.02
2022-12-08T08:33:55.729Z,4.00
2022-12-08T08:34:55.729Z,3.99
2022-12-08T08:35:55.824Z,3.99
2022-12-08T08:36:56.786Z,4.00
2022-12-08T08:37:58.576Z,4.00
2022-12-08T08:38:55.762Z,4.00
2022-12-08T08:39:55.795Z,4.04
2022-12-08T08:40:57.610Z,4.06
2022-12-08T08:41:55.660Z,4.07
2022-12-08T08:43:03.811Z,4.07
2022-12-08T08:43:56.106Z,4.10
2022-12-08T08:45:00.143Z,4.08
2022-12-08T08:45:55.687Z,4.11
2022-12-08T08:46:55.872Z,4.08
2022-12-08T08:52:46.825Z,4.07
2022-12-08T08:53:35.635Z,4.06
2022-12-08T08:54:42.933Z,4.07
2022-12-08T08:55:34.902Z,4.08
2022-12-08T08:56:34.739Z,4.06
2022-12-08T08:57:34.647Z,4.07
2022-12-08T08:58:35.050Z,4.06
2022-12-08T08:59:34.586Z,4.06
2022-12-08T09:01:56.173Z,4.07
2022-12-08T09:02:56.122Z,4.08
2022-12-08T09:03:56.221Z,4.08
2022-12-08T09:04:56.101Z,4.08
2022-12-08T09:05:56.148Z,4.08
2022-12-08T09:06:56.042Z,4.08
2022-12-08T09:07:56.079Z,4.11
2022-12-08T09:08:56.005Z,4.14
2022-12-08T09:10:01.386Z,4.14
2022-12-08T09:10:57.008Z,4.17
2022-12-08T09:11:56.024Z,4.18
2022-12-08T09:12:56.006Z,4.21
2022-12-08T09:13:55.972Z,4.20
2022-12-08T09:14:55.961Z,4.21
2022-12-08T09:15:55.958Z,4.20
2022-12-08T09:16:55.949Z,4.20
2022-12-08T09:17:55.953Z,4.21
2022-12-08T09:18:55.926Z,4.25
2022-12-08T09:19:55.912Z,4.25
2022-12-08T09:20:56.133Z,4.26
2022-12-08T09:21:55.880Z,4.26
2022-12-08T09:22:55.897Z,4.29
2022-12-08T09:23:55.840Z,4.29
2022-12-08T09:24:55.813Z,4.29
2022-12-08T09:25:55.805Z,4.31
2022-12-08T09:26:55.781Z,4.29
2022-12-08T09:27:55.776Z,4.31
2022-12-08T09:28:55.816Z,4.29
2022-12-08T09:29:55.789Z,4.28
2022-12-08T09:30:55.847Z,4.26
2022-12-08T09:31:55.866Z,4.25
2022-12-08T09:32:55.773Z,4.21
2022-12-08T09:33:55.698Z,4.24
2022-12-08T09:34:55.705Z,4.21
2022-12-08T09:35:55.723Z,4.24
2022-12-08T09:36:55.657Z,4.25
2022-12-08T09:37:55.678Z,4.25
2022-12-08T09:38:55.627Z,4.26
2022-12-08T09:39:55.626Z,4.28
2022-12-08T09:40:55.652Z,4.25
2022-12-08T09:41:55.577Z,4.26
2022-12-08T09:42:55.605Z,4.29
2022-12-08T09:43:55.854Z,4.28
2022-12-08T09:44:55.583Z,4.28
2022-12-08T09:45:55.574Z,4.26
2022-12-08T09:46:55.621Z,4.24
2022-12-08T09:47:55.531Z,4.28
2022-12-08T09:48:55.509Z,4.29
2022-12-08T09:49:55.500Z,4.34
2022-12-08T09:50:55.527Z,4.35
2022-12-08T09:51:55.727Z,4.36
2022-12-08T09:52:55.465Z,4.36
2022-12-08T09:53:55.461Z,4.35
2022-12-08T09:54:55.519Z,4.32
2022-12-08T09:55:55.425Z,4.32
2022-12-08T09:56:55.409Z,4.34
2022-12-08T09:57:56.662Z,4.35
2022-12-08T09:58:55.382Z,4.35
2022-12-08T09:59:55.383Z,4.35
2022-12-08T10:00:55.358Z,4.35
2022-12-08T10:01:55.481Z,4.36
2022-12-08T10:02:55.324Z,4.38
2022-12-08T10:03:55.299Z,4.38
2022-12-08T10:04:55.448Z,4.34
2022-12-08T10:05:55.280Z,4.31
2022-12-08T10:06:55.284Z,4.28
2022-12-08T10:07:55.364Z,4.28
2022-12-08T10:08:55.303Z,4.29
2022-12-08T10:09:55.247Z,4.25
2022-12-08T10:10:55.259Z,4.26
2022-12-08T10:11:55.205Z,4.25
2022-12-08T10:12:55.228Z,4.25
2022-12-08T10:13:55.311Z,4.28
2022-12-08T10:14:55.261Z,4.28
2022-12-08T10:15:55.199Z,4.28
2022-12-08T10:16:55.176Z,4.29
2022-12-08T10:17:55.135Z,4.26
2022-12-08T10:18:55.125Z,4.26
2022-12-08T10:19:55.094Z,4.26
2022-12-08T10:20:55.104Z,4.28
2022-12-08T10:21:55.192Z,4.26
2022-12-08T10:22:55.074Z,4.26
2022-12-08T10:23:55.065Z,4.29
2022-12-08T10:24:55.045Z,4.29
2022-12-08T10:25:55.002Z,4.29
2022-12-08T10:26:55.029Z,4.28
2022-12-08T10:27:54.976Z,4.29
2022-12-08T10:28:55.000Z,4.31
2022-12-08T10:29:54.963Z,4.31
2022-12-08T10:30:55.125Z,4.29
2022-12-08T10:31:54.997Z,4.32
2022-12-08T10:32:54.951Z,4.32
2022-12-08T10:33:54.894Z,4.34
2022-12-08T10:34:56.507Z,4.35
2022-12-08T10:35:55.202Z,4.31
2022-12-08T10:36:54.930Z,4.26
2022-12-08T10:37:54.905Z,4.31
2022-12-08T10:38:54.934Z,4.31
2022-12-08T10:39:54.816Z,4.28
2022-12-08T10:40:54.864Z,4.24
2022-12-08T10:41:54.809Z,4.26
2022-12-08T10:42:54.795Z,4.25
2022-12-08T10:43:54.795Z,4.26
2022-12-08T10:44:54.791Z,4.29
2022-12-08T10:45:54.776Z,4.31
2022-12-08T10:46:54.901Z,4.32
2022-12-08T10:47:55.606Z,4.35
2022-12-08T10:48:54.778Z,4.36
2022-12-08T10:49:54.728Z,4.36
2022-12-08T10:50:54.717Z,4.36
2022-12-08T10:51:54.700Z,4.38
2022-12-08T10:52:54.662Z,4.39
2022-12-08T10:53:54.626Z,4.44
2022-12-08T10:54:54.731Z,4.44
2022-12-08T10:55:54.685Z,4.47
2022-12-08T10:56:54.647Z,4.50
2022-12-08T10:57:54.618Z,4.50
2022-12-08T10:58:54.789Z,4.50
2022-12-08T10:59:55.645Z,4.49
2022-12-08T11:00:54.685Z,4.51
2022-12-08T11:01:54.849Z,4.51
2022-12-08T11:02:54.646Z,4.50
2022-12-08T11:03:54.573Z,4.50
2022-12-08T11:04:54.553Z,4.47
2022-12-08T11:05:54.504Z,4.47
2022-12-08T11:06:54.506Z,4.49
2022-12-08T11:07:54.518Z,4.50
2022-12-08T11:08:54.606Z,4.53
2022-12-08T11:09:54.466Z,4.54
2022-12-08T11:10:54.585Z,4.56
2022-12-08T11:11:54.432Z,4.54
2022-12-08T11:12:54.560Z,4.54
2022-12-08T11:13:54.403Z,4.54
2022-12-08T11:14:54.401Z,4.51
2022-12-08T11:15:54.386Z,4.51
2022-12-08T11:16:54.407Z,4.51
2022-12-08T11:17:57.618Z,4.51
2022-12-08T11:18:54.370Z,4.51
2022-12-08T11:19:54.391Z,4.50
2022-12-08T11:20:54.394Z,4.49
2022-12-08T11:21:54.265Z,4.47
2022-12-08T11:22:54.369Z,4.47
2022-12-08T11:23:54.290Z,4.43
2022-12-08T11:24:54.263Z,4.43
2022-12-08T11:25:54.277Z,4.43
2022-12-08T11:26:54.217Z,4.46
2022-12-08T11:27:54.201Z,4.44
2022-12-08T11:28:54.224Z,4.43
2022-12-08T11:29:54.198Z,4.43
2022-12-08T11:30:54.199Z,4.44
2022-12-08T11:31:58.262Z,4.46
2022-12-08T11:32:54.261Z,4.44
2022-12-08T11:33:54.148Z,4.46
2022-12-08T11:34:54.149Z,4.46
2022-12-08T11:35:54.156Z,4.47
2022-12-08T11:36:54.106Z,4.47
2022-12-08T11:38:03.076Z,4.47
2022-12-08T11:38:55.106Z,4.47
2022-12-08T11:39:54.085Z,4.50
2022-12-08T11:40:54.077Z,4.50
2022-12-08T11:41:54.066Z,4.51
2022-12-08T11:42:54.108Z,4.53
2022-12-08T11:44:02.056Z,4.51
2022-12-08T11:44:54.334Z,4.49
2022-12-08T11:45:54.471Z,4.49
2022-12-08T11:46:54.096Z,4.49
2022-12-08T11:47:56.153Z,4.50
2022-12-08T11:48:54.321Z,4.51
2022-12-08T11:49:53.967Z,4.50
2022-12-08T11:50:54.546Z,4.51
2022-12-08T11:51:54.035Z,4.53
2022-12-08T11:52:57.553Z,4.53
2022-12-08T11:53:53.934Z,4.49
2022-12-08T11:54:53.934Z,4.47
2022-12-08T11:55:56.013Z,4.49
2022-12-08T11:56:53.866Z,4.50
2022-12-08T11:57:54.045Z,4.49
2022-12-08T11:58:53.901Z,4.50
2022-12-08T11:59:54.612Z,4.49
2022-12-08T12:00:53.891Z,4.49
2022-12-08T12:01:53.841Z,4.50
2022-12-08T12:02:53.829Z,4.53
2022-12-08T12:03:53.754Z,4.53
2022-12-08T12:04:53.742Z,4.56
2022-12-08T12:06:12.977Z,4.57
2022-12-08T12:06:55.554Z,4.59
2022-12-08T12:07:53.820Z,4.59
2022-12-08T12:08:53.662Z,4.61
2022-12-08T12:09:53.706Z,4.61
2022-12-08T12:10:53.656Z,4.62
2022-12-08T12:11:53.888Z,4.64
2022-12-08T12:12:53.686Z,4.64
2022-12-08T12:13:53.624Z,4.62
2022-12-08T12:14:53.620Z,4.62
2022-12-08T12:15:53.654Z,4.61
2022-12-08T12:16:53.623Z,4.62
2022-12-08T12:17:53.616Z,4.61
2022-12-08T12:18:53.599Z,4.65
2022-12-08T12:19:53.559Z,4.65
2022-12-08T12:20:53.540Z,4.65
2022-12-08T12:21:53.803Z,4.67
2022-12-08T12:22:53.647Z,4.67
2022-12-08T12:23:54.672Z,4.68
2022-12-08T12:24:53.715Z,4.71
2022-12-08T12:25:53.523Z,4.74
2022-12-08T12:26:53.465Z,4.75
2022-12-08T12:27:57.151Z,4.75
2022-12-08T12:28:53.437Z,4.79
2022-12-08T12:29:55.932Z,4.84
2022-12-08T12:30:54.544Z,4.86
2022-12-08T12:31:53.483Z,4.87
2022-12-08T12:32:53.357Z,4.90
2022-12-08T12:33:53.393Z,4.90
2022-12-08T12:34:53.434Z,4.88
2022-12-08T12:35:53.384Z,4.88
2022-12-08T12:36:53.375Z,4.88
2022-12-08T12:37:53.329Z,4.91
2022-12-08T12:38:53.407Z,4.93
2022-12-08T12:39:53.317Z,4.91
2022-12-08T12:40:53.362Z,4.93
2022-12-08T12:41:53.303Z,4.96
2022-12-08T12:42:54.151Z,4.96
2022-12-08T12:43:53.365Z,5.01
2022-12-08T12:44:57.036Z,5.04
2022-12-08T12:45:53.901Z,5.05
2022-12-08T12:49:15.660Z,5.05
2022-12-08T12:49:54.668Z,5.05
2022-12-08T12:51:03.974Z,5.04
2022-12-08T12:52:03.498Z,4.99
2022-12-08T12:53:06.902Z,5.04
2022-12-08T12:53:55.578Z,5.05
2022-12-08T12:56:12.605Z,5.05
2022-12-08T12:57:12.482Z,5.05
2022-12-08T12:58:12.460Z,5.01
2022-12-08T12:59:12.434Z,5.02
2022-12-08T13:00:12.599Z,5.04
2022-12-08T13:01:12.460Z,5.05
2022-12-08T13:02:20.512Z,5.05
2022-12-08T13:03:12.464Z,5.05
2022-12-08T13:04:20.414Z,5.02
2022-12-08T13:05:12.338Z,5.05
2022-12-08T13:06:14.577Z,5.04
2022-12-08T13:07:12.318Z,5.04
2022-12-08T13:08:12.471Z,5.02
2022-12-08T13:09:12.282Z,4.99
2022-12-08T13:10:12.284Z,4.99
2022-12-08T13:11:12.288Z,5.01
2022-12-08T13:12:12.257Z,5.02
2022-12-08T13:13:12.213Z,5.01
2022-12-08T13:14:12.218Z,4.97
2022-12-08T13:15:12.244Z,4.97
2022-12-08T13:16:18.810Z,4.97
2022-12-08T13:17:13.229Z,4.94
2022-12-08T13:18:12.161Z,4.94
2022-12-08T13:19:12.190Z,4.91
2022-12-08T13:20:12.188Z,4.90
2022-12-08T13:21:12.132Z,4.94
2022-12-08T13:22:12.148Z,4.94
2022-12-08T13:23:12.115Z,4.94
2022-12-08T13:24:12.153Z,4.94
2022-12-08T13:25:12.057Z,4.93
2022-12-08T13:26:12.123Z,4.94
2022-12-08T13:27:12.093Z,4.94
2022-12-08T13:28:12.054Z,4.96
2022-12-08T13:29:12.015Z,4.96
2022-12-08T13:30:11.995Z,4.97
2022-12-08T13:31:12.014Z,4.94
2022-12-08T13:32:12.030Z,4.93
2022-12-08T13:33:19.563Z,4.93
2022-12-08T13:34:12.981Z,4.93
2022-12-08T13:35:11.924Z,4.93
2022-12-08T13:36:11.968Z,4.96
2022-12-08T13:37:11.949Z,4.94
2022-12-08T13:38:11.907Z,4.99
2022-12-08T13:39:11.894Z,4.96
2022-12-08T13:40:11.883Z,4.97
2022-12-08T13:41:11.853Z,4.97
2022-12-08T13:42:11.888Z,4.97
2022-12-08T13:43:11.858Z,4.97
2022-12-08T13:45:03.545Z,4.99
2022-12-08T13:45:39.654Z,4.94
2022-12-08T13:46:57.873Z,4.96
2022-12-08T13:49:05.150Z,4.93
2022-12-08T13:57:13.157Z,4.91
2022-12-08T13:58:11.704Z,4.86
2022-12-08T13:59:11.618Z,4.86
2022-12-08T14:00:11.650Z,4.86
2022-12-08T14:01:11.654Z,4.86
2022-12-08T14:02:11.687Z,4.84
2022-12-08T14:03:11.662Z,4.83
2022-12-08T14:04:42.186Z,4.79
2022-12-08T14:05:26.293Z,4.77